sensor_id;sensor_type;location;lat;lon;timestamp;P1;durP1;ratioP1;P2;durP2;ratioP2
5702;SDS011;2876;51.738;10.050;2022-08-03T00:02:21;6.80;;;3.27;;
5702;SDS011;2876;51.738;10.050;2022-08-03T00:08:23;3.33;;;3.03;;
5702;SDS011;2876;51.738;10.050;2022-08-03T00:14:26;3.10;;;2.83;;
5702;SDS011;2876;51.738;10.050;2022-08-03T00:20:28;3.37;;;3.07;;
5702;SDS011;2876;51.738;10.050;2022-08-03T00:26:30;3.07;;;2.77;;
5702;SDS011;2876;51.738;10.050;2022-08-03T00:32:32;5.27;;;3.53;;
5702;SDS011;2876;51.738;10.050;2022-08-03T00:38:34;4.40;;;2.83;;
5702;SDS011;2876;51.738;10.050;2022-08-03T00:44:40;3.67;;;2.87;;
5702;SDS011;2876;51.738;10.050;2022-08-03T00:50:43;4.70;;;2.70;;
5702;SDS011;2876;51.738;10.050;2022-08-03T00:56:46;3.43;;;2.63;;
5702;SDS011;2876;51.738;10.050;2022-08-03T01:03:01;7.17;;;3.37;;
5702;SDS011;2876;51.738;10.050;2022-08-03T01:21:33;4.90;;;3.77;;
5702;SDS011;2876;51.738;10.050;2022-08-03T01:34:02;5.87;;;2.73;;
5702;SDS011;2876;51.738;10.050;2022-08-03T01:40:14;4.60;;;2.60;;
5702;SDS011;2876;51.738;10.050;2022-08-03T01:46:17;3.27;;;2.53;;
5702;SDS011;2876;51.738;10.050;2022-08-03T01:52:21;3.30;;;2.53;;
5702;SDS011;2876;51.738;10.050;2022-08-03T01:58:25;4.10;;;2.60;;
5702;SDS011;2876;51.738;10.050;2022-08-03T02:04:29;3.50;;;3.20;;
5702;SDS011;2876;51.738;10.050;2022-08-03T02:10:32;4.67;;;3.70;;
5702;SDS011;2876;51.738;10.050;2022-08-03T02:16:37;3.77;;;3.30;;
5702;SDS011;2876;51.738;10.050;2022-08-03T02:22:40;7.73;;;4.10;;
5702;SDS011;2876;51.738;10.050;2022-08-03T02:28:45;3.40;;;3.10;;
5702;SDS011;2876;51.738;10.050;2022-08-03T02:34:52;4.60;;;4.20;;
5702;SDS011;2876;51.738;10.050;2022-08-03T02:40:56;5.10;;;3.90;;
5702;SDS011;2876;51.738;10.050;2022-08-03T02:47:02;7.10;;;4.10;;
5702;SDS011;2876;51.738;10.050;2022-08-03T02:53:09;4.93;;;3.90;;
5702;SDS011;2876;51.738;10.050;2022-08-03T02:59:13;4.13;;;3.77;;
5702;SDS011;2876;51.738;10.050;2022-08-03T03:05:17;4.43;;;4.03;;
5702;SDS011;2876;51.738;10.050;2022-08-03T03:11:39;4.70;;;4.20;;
5702;SDS011;2876;51.738;10.050;2022-08-03T03:17:42;4.20;;;3.90;;
5702;SDS011;2876;51.738;10.050;2022-08-03T03:23:45;8.93;;;3.87;;
5702;SDS011;2876;51.738;10.050;2022-08-03T03:29:48;5.90;;;4.03;;
5702;SDS011;2876;51.738;10.050;2022-08-03T03:35:51;9.93;;;3.83;;
5702;SDS011;2876;51.738;10.050;2022-08-03T03:41:53;5.03;;;3.90;;
5702;SDS011;2876;51.738;10.050;2022-08-03T03:47:56;4.67;;;3.50;;
5702;SDS011;2876;51.738;10.050;2022-08-03T03:54:02;3.93;;;3.53;;
5702;SDS011;2876;51.738;10.050;2022-08-03T04:00:07;4.30;;;3.40;;
5702;SDS011;2876;51.738;10.050;2022-08-03T04:06:10;9.47;;;4.00;;
5702;SDS011;2876;51.738;10.050;2022-08-03T04:12:31;4.73;;;4.23;;
5702;SDS011;2876;51.738;10.050;2022-08-03T04:18:35;9.73;;;4.03;;
5702;SDS011;2876;51.738;10.050;2022-08-03T04:24:43;6.47;;;3.93;;
5702;SDS011;2876;51.738;10.050;2022-08-03T04:31:00;4.50;;;3.67;;
5702;SDS011;2876;51.738;10.050;2022-08-03T04:37:07;5.77;;;4.50;;
5702;SDS011;2876;51.738;10.050;2022-08-03T04:43:22;4.43;;;4.10;;
5702;SDS011;2876;51.738;10.050;2022-08-03T04:49:25;3.93;;;3.53;;
5702;SDS011;2876;51.738;10.050;2022-08-03T04:55:29;4.13;;;3.60;;
5702;SDS011;2876;51.738;10.050;2022-08-03T05:01:34;4.40;;;3.90;;
5702;SDS011;2876;51.738;10.050;2022-08-03T05:07:37;4.17;;;3.43;;
5702;SDS011;2876;51.738;10.050;2022-08-03T05:13:40;3.80;;;3.40;;
5702;SDS011;2876;51.738;10.050;2022-08-03T05:19:42;4.17;;;3.77;;
5702;SDS011;2876;51.738;10.050;2022-08-03T05:25:44;5.70;;;2.90;;
5702;SDS011;2876;51.738;10.050;2022-08-03T05:31:50;2.93;;;2.73;;
5702;SDS011;2876;51.738;10.050;2022-08-03T05:37:52;2.77;;;2.57;;
5702;SDS011;2876;51.738;10.050;2022-08-03T05:43:55;3.30;;;2.87;;
5702;SDS011;2876;51.738;10.050;2022-08-03T05:49:58;5.23;;;3.03;;
5702;SDS011;2876;51.738;10.050;2022-08-03T05:56:00;9.27;;;3.33;;
5702;SDS011;2876;51.738;10.050;2022-08-03T06:02:14;5.90;;;2.93;;
5702;SDS011;2876;51.738;10.050;2022-08-03T06:08:17;3.60;;;2.60;;
5702;SDS011;2876;51.738;10.050;2022-08-03T06:14:19;2.73;;;2.40;;
5702;SDS011;2876;51.738;10.050;2022-08-03T06:20:21;3.30;;;2.50;;
5702;SDS011;2876;51.738;10.050;2022-08-03T06:26:27;2.47;;;2.27;;
5702;SDS011;2876;51.738;10.050;2022-08-03T06:32:29;4.60;;;2.80;;
5702;SDS011;2876;51.738;10.050;2022-08-03T06:38:31;2.70;;;2.33;;
5702;SDS011;2876;51.738;10.050;2022-08-03T06:44:33;3.20;;;2.50;;
5702;SDS011;2876;51.738;10.050;2022-08-03T06:50:36;2.37;;;2.00;;
5702;SDS011;2876;51.738;10.050;2022-08-03T06:56:42;3.60;;;2.07;;
5702;SDS011;2876;51.738;10.050;2022-08-03T07:02:44;4.33;;;2.40;;
5702;SDS011;2876;51.738;10.050;2022-08-03T07:08:47;2.43;;;2.20;;
5702;SDS011;2876;51.738;10.050;2022-08-03T07:14:54;4.83;;;2.23;;
5702;SDS011;2876;51.738;10.050;2022-08-03T07:21:02;3.43;;;2.10;;
5702;SDS011;2876;51.738;10.050;2022-08-03T07:27:04;4.70;;;2.33;;
5702;SDS011;2876;51.738;10.050;2022-08-03T07:33:06;4.97;;;2.50;;
5702;SDS011;2876;51.738;10.050;2022-08-03T07:39:08;2.43;;;2.23;;
5702;SDS011;2876;51.738;10.050;2022-08-03T07:45:18;4.90;;;1.90;;
5702;SDS011;2876;51.738;10.050;2022-08-03T07:51:21;3.97;;;2.07;;
5702;SDS011;2876;51.738;10.050;2022-08-03T07:57:23;2.37;;;2.13;;
5702;SDS011;2876;51.738;10.050;2022-08-03T08:03:25;5.30;;;2.20;;
5702;SDS011;2876;51.738;10.050;2022-08-03T08:09:42;2.50;;;2.30;;
5702;SDS011;2876;51.738;10.050;2022-08-03T08:15:44;3.00;;;2.00;;
5702;SDS011;2876;51.738;10.050;2022-08-03T08:21:47;4.90;;;2.10;;
5702;SDS011;2876;51.738;10.050;2022-08-03T08:28:02;3.87;;;1.70;;
5702;SDS011;2876;51.738;10.050;2022-08-03T08:34:24;3.77;;;2.00;;
5702;SDS011;2876;51.738;10.050;2022-08-03T08:40:27;2.40;;;2.20;;
5702;SDS011;2876;51.738;10.050;2022-08-03T08:46:31;1.93;;;1.73;;
5702;SDS011;2876;51.738;10.050;2022-08-03T08:52:34;2.00;;;1.90;;
5702;SDS011;2876;51.738;10.050;2022-08-03T08:58:37;5.03;;;2.33;;
5702;SDS011;2876;51.738;10.050;2022-08-03T09:04:42;2.30;;;2.10;;
5702;SDS011;2876;51.738;10.050;2022-08-03T09:10:45;1.97;;;1.67;;
5702;SDS011;2876;51.738;10.050;2022-08-03T09:16:57;2.17;;;1.87;;
5702;SDS011;2876;51.738;10.050;2022-08-03T09:23:06;3.20;;;1.90;;
5702;SDS011;2876;51.738;10.050;2022-08-03T09:29:31;2.93;;;1.57;;
5702;SDS011;2876;51.738;10.050;2022-08-03T09:35:40;1.93;;;1.70;;
5702;SDS011;2876;51.738;10.050;2022-08-03T09:42:05;1.67;;;1.40;;
5702;SDS011;2876;51.738;10.050;2022-08-03T09:48:26;2.27;;;1.83;;
5702;SDS011;2876;51.738;10.050;2022-08-03T09:54:35;2.40;;;1.67;;
5702;SDS011;2876;51.738;10.050;2022-08-03T10:00:53;2.53;;;1.90;;
5702;SDS011;2876;51.738;10.050;2022-08-03T10:07:06;2.30;;;2.10;;
5702;SDS011;2876;51.738;10.050;2022-08-03T10:13:11;1.80;;;1.57;;
5702;SDS011;2876;51.738;10.050;2022-08-03T10:19:15;2.03;;;1.70;;
5702;SDS011;2876;51.738;10.050;2022-08-03T10:25:17;1.80;;;1.70;;
5702;SDS011;2876;51.738;10.050;2022-08-03T10:31:19;4.20;;;2.40;;
5702;SDS011;2876;51.738;10.050;2022-08-03T10:37:25;3.93;;;1.57;;
5702;SDS011;2876;51.738;10.050;2022-08-03T10:43:36;3.00;;;1.50;;
5702;SDS011;2876;51.738;10.050;2022-08-03T10:49:51;2.03;;;1.60;;
5702;SDS011;2876;51.738;10.050;2022-08-03T10:55:53;2.80;;;1.87;;
5702;SDS011;2876;51.738;10.050;2022-08-03T11:02:18;2.10;;;1.90;;
5702;SDS011;2876;51.738;10.050;2022-08-03T11:08:27;2.40;;;1.63;;
5702;SDS011;2876;51.738;10.050;2022-08-03T11:14:38;1.63;;;1.53;;
5702;SDS011;2876;51.738;10.050;2022-08-03T11:20:52;2.20;;;1.80;;
5702;SDS011;2876;51.738;10.050;2022-08-03T11:27:22;2.30;;;2.10;;
5702;SDS011;2876;51.738;10.050;2022-08-03T11:33:30;2.10;;;1.60;;
5702;SDS011;2876;51.738;10.050;2022-08-03T11:39:41;3.10;;;1.70;;
5702;SDS011;2876;51.738;10.050;2022-08-03T11:52:34;4.63;;;1.57;;
5702;SDS011;2876;51.738;10.050;2022-08-03T11:58:46;7.20;;;1.80;;
5702;SDS011;2876;51.738;10.050;2022-08-03T12:05:10;2.07;;;1.60;;
5702;SDS011;2876;51.738;10.050;2022-08-03T12:11:13;3.23;;;1.50;;
5702;SDS011;2876;51.738;10.050;2022-08-03T12:17:16;2.90;;;1.70;;
5702;SDS011;2876;51.738;10.050;2022-08-03T12:23:19;1.70;;;1.60;;
5702;SDS011;2876;51.738;10.050;2022-08-03T12:29:21;1.50;;;1.40;;
5702;SDS011;2876;51.738;10.050;2022-08-03T12:35:25;1.50;;;1.40;;
5702;SDS011;2876;51.738;10.050;2022-08-03T12:41:34;1.70;;;1.60;;
5702;SDS011;2876;51.738;10.050;2022-08-03T12:54:20;3.13;;;1.70;;
5702;SDS011;2876;51.738;10.050;2022-08-03T13:00:26;1.73;;;1.63;;
5702;SDS011;2876;51.738;10.050;2022-08-03T13:06:32;1.93;;;1.60;;
5702;SDS011;2876;51.738;10.050;2022-08-03T13:12:44;3.13;;;1.97;;
5702;SDS011;2876;51.738;10.050;2022-08-03T13:18:50;2.67;;;1.67;;
5702;SDS011;2876;51.738;10.050;2022-08-03T13:24:55;2.03;;;1.57;;
5702;SDS011;2876;51.738;10.050;2022-08-03T13:31:01;2.53;;;1.40;;
5702;SDS011;2876;51.738;10.050;2022-08-03T13:37:03;3.90;;;2.37;;
5702;SDS011;2876;51.738;10.050;2022-08-03T13:43:10;2.83;;;1.80;;
5702;SDS011;2876;51.738;10.050;2022-08-03T13:49:12;2.20;;;1.80;;
5702;SDS011;2876;51.738;10.050;2022-08-03T13:55:15;1.97;;;1.70;;
5702;SDS011;2876;51.738;10.050;2022-08-03T14:01:17;2.10;;;1.90;;
5702;SDS011;2876;51.738;10.050;2022-08-03T14:07:39;1.90;;;1.77;;
5702;SDS011;2876;51.738;10.050;2022-08-03T14:13:41;1.90;;;1.60;;
5702;SDS011;2876;51.738;10.050;2022-08-03T14:19:43;1.93;;;1.40;;
5702;SDS011;2876;51.738;10.050;2022-08-03T14:25:54;2.13;;;1.70;;
5702;SDS011;2876;51.738;10.050;2022-08-03T14:31:56;2.27;;;1.50;;
5702;SDS011;2876;51.738;10.050;2022-08-03T14:38:12;1.70;;;1.40;;
5702;SDS011;2876;51.738;10.050;2022-08-03T14:44:15;1.70;;;1.60;;
5702;SDS011;2876;51.738;10.050;2022-08-03T14:50:17;1.40;;;1.30;;
5702;SDS011;2876;51.738;10.050;2022-08-03T14:56:39;3.87;;;1.80;;
5702;SDS011;2876;51.738;10.050;2022-08-03T15:02:41;1.97;;;1.73;;
5702;SDS011;2876;51.738;10.050;2022-08-03T15:08:43;4.07;;;1.80;;
5702;SDS011;2876;51.738;10.050;2022-08-03T15:15:06;3.30;;;1.70;;
5702;SDS011;2876;51.738;10.050;2022-08-03T15:21:09;1.83;;;1.70;;
5702;SDS011;2876;51.738;10.050;2022-08-03T15:27:31;1.90;;;1.80;;
5702;SDS011;2876;51.738;10.050;2022-08-03T15:33:33;8.93;;;1.90;;
5702;SDS011;2876;51.738;10.050;2022-08-03T15:39:35;1.67;;;1.30;;
5702;SDS011;2876;51.738;10.050;2022-08-03T15:45:57;1.77;;;1.50;;
5702;SDS011;2876;51.738;10.050;2022-08-03T15:52:19;4.50;;;1.50;;
5702;SDS011;2876;51.738;10.050;2022-08-03T15:58:21;1.93;;;1.77;;
5702;SDS011;2876;51.738;10.050;2022-08-03T16:04:43;2.97;;;1.77;;
5702;SDS011;2876;51.738;10.050;2022-08-03T16:10:46;6.70;;;2.10;;
5702;SDS011;2876;51.738;10.050;2022-08-03T16:16:50;2.33;;;1.80;;
5702;SDS011;2876;51.738;10.050;2022-08-03T16:22:53;4.37;;;2.00;;
5702;SDS011;2876;51.738;10.050;2022-08-03T16:28:56;3.37;;;1.70;;
5702;SDS011;2876;51.738;10.050;2022-08-03T16:34:58;2.20;;;2.00;;
5702;SDS011;2876;51.738;10.050;2022-08-03T16:41:01;5.77;;;2.40;;
5702;SDS011;2876;51.738;10.050;2022-08-03T16:47:05;1.90;;;1.80;;
5702;SDS011;2876;51.738;10.050;2022-08-03T16:53:08;4.73;;;2.47;;
5702;SDS011;2876;51.738;10.050;2022-08-03T16:59:17;7.40;;;1.87;;
5702;SDS011;2876;51.738;10.050;2022-08-03T17:05:36;2.13;;;1.73;;
5702;SDS011;2876;51.738;10.050;2022-08-03T17:11:48;4.87;;;1.97;;
5702;SDS011;2876;51.738;10.050;2022-08-03T17:18:00;5.30;;;1.93;;
5702;SDS011;2876;51.738;10.050;2022-08-03T17:24:11;2.10;;;1.83;;
5702;SDS011;2876;51.738;10.050;2022-08-03T17:30:27;2.17;;;1.80;;
5702;SDS011;2876;51.738;10.050;2022-08-03T17:36:49;3.07;;;2.00;;
5702;SDS011;2876;51.738;10.050;2022-08-03T17:43:12;2.83;;;2.30;;
5702;SDS011;2876;51.738;10.050;2022-08-03T17:49:37;1.70;;;1.60;;
5702;SDS011;2876;51.738;10.050;2022-08-03T17:55:40;3.30;;;2.00;;
5702;SDS011;2876;51.738;10.050;2022-08-03T18:09:03;2.23;;;1.77;;
5702;SDS011;2876;51.738;10.050;2022-08-03T18:15:29;6.70;;;2.07;;
5702;SDS011;2876;51.738;10.050;2022-08-03T18:21:41;3.60;;;2.10;;
5702;SDS011;2876;51.738;10.050;2022-08-03T18:28:04;2.63;;;1.90;;
5702;SDS011;2876;51.738;10.050;2022-08-03T18:34:06;9.40;;;2.33;;
5702;SDS011;2876;51.738;10.050;2022-08-03T18:40:30;3.10;;;1.90;;
5702;SDS011;2876;51.738;10.050;2022-08-03T18:52:58;4.30;;;2.00;;
5702;SDS011;2876;51.738;10.050;2022-08-03T19:06:02;2.13;;;1.93;;
5702;SDS011;2876;51.738;10.050;2022-08-03T19:12:21;1.87;;;1.73;;
5702;SDS011;2876;51.738;10.050;2022-08-03T19:18:35;1.83;;;1.73;;
5702;SDS011;2876;51.738;10.050;2022-08-03T19:24:39;4.00;;;2.10;;
5702;SDS011;2876;51.738;10.050;2022-08-03T19:30:45;3.00;;;2.10;;
5702;SDS011;2876;51.738;10.050;2022-08-03T19:37:10;3.17;;;2.07;;
5702;SDS011;2876;51.738;10.050;2022-08-03T19:43:25;9.70;;;2.07;;
5702;SDS011;2876;51.738;10.050;2022-08-03T19:49:54;6.03;;;1.97;;
5702;SDS011;2876;51.738;10.050;2022-08-03T19:56:10;4.73;;;1.93;;
5702;SDS011;2876;51.738;10.050;2022-08-03T20:02:17;4.53;;;2.27;;
5702;SDS011;2876;51.738;10.050;2022-08-03T20:08:27;2.40;;;2.20;;
5702;SDS011;2876;51.738;10.050;2022-08-03T20:14:30;2.23;;;2.07;;
5702;SDS011;2876;51.738;10.050;2022-08-03T20:20:33;3.50;;;2.40;;
5702;SDS011;2876;51.738;10.050;2022-08-03T20:26:37;3.13;;;2.37;;
5702;SDS011;2876;51.738;10.050;2022-08-03T20:32:43;2.60;;;2.40;;
5702;SDS011;2876;51.738;10.050;2022-08-03T20:38:45;3.10;;;2.80;;
5702;SDS011;2876;51.738;10.050;2022-08-03T20:44:48;7.83;;;2.57;;
5702;SDS011;2876;51.738;10.050;2022-08-03T20:51:07;6.70;;;2.97;;
5702;SDS011;2876;51.738;10.050;2022-08-03T20:57:20;3.10;;;2.53;;
5702;SDS011;2876;51.738;10.050;2022-08-03T21:03:22;5.00;;;2.57;;
5702;SDS011;2876;51.738;10.050;2022-08-03T21:09:50;2.60;;;2.40;;
5702;SDS011;2876;51.738;10.050;2022-08-03T21:15:58;2.50;;;2.30;;
5702;SDS011;2876;51.738;10.050;2022-08-03T21:22:14;5.10;;;3.03;;
5702;SDS011;2876;51.738;10.050;2022-08-03T21:28:20;5.00;;;2.37;;
5702;SDS011;2876;51.738;10.050;2022-08-03T21:34:27;2.57;;;2.20;;
5702;SDS011;2876;51.738;10.050;2022-08-03T21:40:30;4.87;;;2.73;;
5702;SDS011;2876;51.738;10.050;2022-08-03T21:46:36;4.40;;;2.90;;
5702;SDS011;2876;51.738;10.050;2022-08-03T21:52:42;5.17;;;3.00;;
5702;SDS011;2876;51.738;10.050;2022-08-03T21:58:54;5.23;;;2.90;;
5702;SDS011;2876;51.738;10.050;2022-08-03T22:05:00;2.70;;;2.40;;
5702;SDS011;2876;51.738;10.050;2022-08-03T22:11:06;5.43;;;2.70;;
5702;SDS011;2876;51.738;10.050;2022-08-03T22:17:11;2.60;;;2.30;;
5702;SDS011;2876;51.738;10.050;2022-08-03T22:23:44;11.03;;;4.73;;
5702;SDS011;2876;51.738;10.050;2022-08-03T22:29:50;6.07;;;3.30;;
5702;SDS011;2876;51.738;10.050;2022-08-03T22:35:55;8.00;;;4.03;;
5702;SDS011;2876;51.738;10.050;2022-08-03T22:41:59;7.40;;;2.63;;
5702;SDS011;2876;51.738;10.050;2022-08-03T22:48:06;4.03;;;2.50;;
5702;SDS011;2876;51.738;10.050;2022-08-03T22:54:11;4.27;;;2.83;;
5702;SDS011;2876;51.738;10.050;2022-08-03T23:00:14;2.40;;;2.20;;
5702;SDS011;2876;51.738;10.050;2022-08-03T23:06:17;5.73;;;2.77;;
5702;SDS011;2876;51.738;10.050;2022-08-03T23:12:21;3.40;;;3.10;;
5702;SDS011;2876;51.738;10.050;2022-08-03T23:18:27;6.10;;;3.13;;
5702;SDS011;2876;51.738;10.050;2022-08-03T23:24:35;7.13;;;2.50;;
5702;SDS011;2876;51.738;10.050;2022-08-03T23:30:39;3.03;;;2.83;;
5702;SDS011;2876;51.738;10.050;2022-08-03T23:36:48;7.70;;;3.07;;
5702;SDS011;2876;51.738;10.050;2022-08-03T23:42:50;5.23;;;2.80;;
5702;SDS011;2876;51.738;10.050;2022-08-03T23:48:53;8.30;;;3.20;;
